sensor_id;sensor_type;location;lat;lon;timestamp;P1;durP1;ratioP1;P2;durP2;ratioP2
21810;SDS011;11067;48.788;9.208;2022-09-20T00:01:02;8.75;;;3.47;;
21810;SDS011;11067;48.788;9.208;2022-09-20T00:03:41;7.05;;;3.40;;
21810;SDS011;11067;48.788;9.208;2022-09-20T00:06:16;6.45;;;3.38;;
21810;SDS011;11067;48.788;9.208;2022-09-20T00:08:43;11.25;;;3.75;;
21810;SDS011;11067;48.788;9.208;2022-09-20T00:11:10;8.30;;;3.33;;
21810;SDS011;11067;48.788;9.208;2022-09-20T00:13:39;6.82;;;3.67;;
21810;SDS011;11067;48.788;9.208;2022-09-20T00:16:10;6.17;;;3.30;;
21810;SDS011;11067;48.788;9.208;2022-09-20T00:18:38;6.63;;;3.30;;
21810;SDS011;11067;48.788;9.208;2022-09-20T00:21:04;8.93;;;3.47;;
21810;SDS011;11067;48.788;9.208;2022-09-20T00:23:31;5.90;;;3.00;;
21810;SDS011;11067;48.788;9.208;2022-09-20T00:26:00;6.60;;;3.37;;
21810;SDS011;11067;48.788;9.208;2022-09-20T00:28:27;7.78;;;3.22;;
21810;SDS011;11067;48.788;9.208;2022-09-20T00:30:54;8.80;;;3.17;;
21810;SDS011;11067;48.788;9.208;2022-09-20T00:33:20;6.17;;;3.30;;
21810;SDS011;11067;48.788;9.208;2022-09-20T00:35:47;5.70;;;3.25;;
21810;SDS011;11067;48.788;9.208;2022-09-20T00:38:13;9.30;;;3.35;;
21810;SDS011;11067;48.788;9.208;2022-09-20T00:40:39;7.30;;;3.60;;
21810;SDS011;11067;48.788;9.208;2022-09-20T00:43:08;7.57;;;3.20;;
21810;SDS011;11067;48.788;9.208;2022-09-20T00:45:38;5.60;;;3.10;;
21810;SDS011;11067;48.788;9.208;2022-09-20T00:48:14;6.27;;;3.10;;
21810;SDS011;11067;48.788;9.208;2022-09-20T00:50:48;7.40;;;3.30;;
21810;SDS011;11067;48.788;9.208;2022-09-20T00:53:22;5.30;;;3.13;;
21810;SDS011;11067;48.788;9.208;2022-09-20T00:55:56;8.45;;;3.20;;
21810;SDS011;11067;48.788;9.208;2022-09-20T00:58:50;6.07;;;3.13;;
21810;SDS011;11067;48.788;9.208;2022-09-20T01:01:25;8.97;;;3.00;;
21810;SDS011;11067;48.788;9.208;2022-09-20T01:03:51;5.10;;;2.67;;
21810;SDS011;11067;48.788;9.208;2022-09-20T01:06:18;5.37;;;2.63;;
21810;SDS011;11067;48.788;9.208;2022-09-20T01:08:46;6.97;;;2.53;;
21810;SDS011;11067;48.788;9.208;2022-09-20T01:11:15;5.15;;;2.50;;
21810;SDS011;11067;48.788;9.208;2022-09-20T01:13:41;5.93;;;2.42;;
21810;SDS011;11067;48.788;9.208;2022-09-20T01:16:06;4.70;;;2.47;;
21810;SDS011;11067;48.788;9.208;2022-09-20T01:18:33;7.20;;;2.30;;
21810;SDS011;11067;48.788;9.208;2022-09-20T01:21:00;5.03;;;2.20;;
21810;SDS011;11067;48.788;9.208;2022-09-20T01:28:59;6.10;;;2.50;;
21810;SDS011;11067;48.788;9.208;2022-09-20T01:31:39;6.00;;;2.57;;
21810;SDS011;11067;48.788;9.208;2022-09-20T01:34:16;7.47;;;2.50;;
21810;SDS011;11067;48.788;9.208;2022-09-20T01:37:13;6.68;;;2.50;;
21810;SDS011;11067;48.788;9.208;2022-09-20T01:39:55;6.05;;;2.42;;
21810;SDS011;11067;48.788;9.208;2022-09-20T01:42:32;4.78;;;2.45;;
21810;SDS011;11067;48.788;9.208;2022-09-20T01:45:22;5.20;;;2.42;;
21810;SDS011;11067;48.788;9.208;2022-09-20T01:53:22;6.55;;;2.75;;
21810;SDS011;11067;48.788;9.208;2022-09-20T02:15:07;5.20;;;2.80;;
21810;SDS011;11067;48.788;9.208;2022-09-20T02:18:00;7.73;;;2.80;;
21810;SDS011;11067;48.788;9.208;2022-09-20T02:20:55;6.33;;;2.83;;
21810;SDS011;11067;48.788;9.208;2022-09-20T02:23:45;6.22;;;2.70;;
21810;SDS011;11067;48.788;9.208;2022-09-20T02:29:09;7.07;;;2.78;;
21810;SDS011;11067;48.788;9.208;2022-09-20T02:37:18;6.20;;;2.28;;
21810;SDS011;11067;48.788;9.208;2022-09-20T02:40:05;7.05;;;2.42;;
21810;SDS011;11067;48.788;9.208;2022-09-20T02:42:57;3.75;;;2.45;;
21810;SDS011;11067;48.788;9.208;2022-09-20T02:45:55;6.35;;;2.40;;
21810;SDS011;11067;48.788;9.208;2022-09-20T02:51:38;3.95;;;2.50;;
21810;SDS011;11067;48.788;9.208;2022-09-20T02:57:13;5.28;;;2.30;;
21810;SDS011;11067;48.788;9.208;2022-09-20T03:00:00;4.55;;;2.45;;
21810;SDS011;11067;48.788;9.208;2022-09-20T03:02:31;4.05;;;2.33;;
21810;SDS011;11067;48.788;9.208;2022-09-20T03:05:12;6.30;;;2.33;;
21810;SDS011;11067;48.788;9.208;2022-09-20T03:07:53;3.77;;;1.73;;
21810;SDS011;11067;48.788;9.208;2022-09-20T03:10:34;3.93;;;2.03;;
21810;SDS011;11067;48.788;9.208;2022-09-20T03:22:17;3.88;;;2.00;;
21810;SDS011;11067;48.788;9.208;2022-09-20T03:25:15;3.45;;;2.00;;
21810;SDS011;11067;48.788;9.208;2022-09-20T03:33:38;4.15;;;2.17;;
21810;SDS011;11067;48.788;9.208;2022-09-20T03:39:21;6.32;;;2.13;;
21810;SDS011;11067;48.788;9.208;2022-09-20T03:53:12;8.97;;;3.57;;
21810;SDS011;11067;48.788;9.208;2022-09-20T04:03:59;8.13;;;3.20;;
21810;SDS011;11067;48.788;9.208;2022-09-20T04:07:03;7.45;;;3.22;;
21810;SDS011;11067;48.788;9.208;2022-09-20T04:09:50;7.55;;;3.42;;
21810;SDS011;11067;48.788;9.208;2022-09-20T04:15:27;7.63;;;3.30;;
21810;SDS011;11067;48.788;9.208;2022-09-20T04:18:15;10.13;;;4.00;;
21810;SDS011;11067;48.788;9.208;2022-09-20T04:21:02;8.32;;;3.28;;
21810;SDS011;11067;48.788;9.208;2022-09-20T04:26:14;13.52;;;4.85;;
21810;SDS011;11067;48.788;9.208;2022-09-20T04:28:47;13.18;;;4.72;;
21810;SDS011;11067;48.788;9.208;2022-09-20T04:31:23;14.80;;;4.80;;
21810;SDS011;11067;48.788;9.208;2022-09-20T04:34:00;16.42;;;5.50;;
21810;SDS011;11067;48.788;9.208;2022-09-20T04:42:19;14.48;;;5.78;;
21810;SDS011;11067;48.788;9.208;2022-09-20T04:50:55;16.20;;;6.53;;
21810;SDS011;11067;48.788;9.208;2022-09-20T05:05:11;6.57;;;2.78;;
21810;SDS011;11067;48.788;9.208;2022-09-20T05:08:12;5.28;;;2.10;;
21810;SDS011;11067;48.788;9.208;2022-09-20T05:14:12;5.60;;;2.38;;
21810;SDS011;11067;48.788;9.208;2022-09-20T05:22:37;4.97;;;2.60;;
21810;SDS011;11067;48.788;9.208;2022-09-20T05:32:44;8.15;;;2.90;;
21810;SDS011;11067;48.788;9.208;2022-09-20T05:35:22;4.93;;;2.45;;
21810;SDS011;11067;48.788;9.208;2022-09-20T05:46:32;4.70;;;2.50;;
21810;SDS011;11067;48.788;9.208;2022-09-20T05:49:14;5.80;;;3.00;;
21810;SDS011;11067;48.788;9.208;2022-09-20T05:55:03;6.80;;;3.00;;
21810;SDS011;11067;48.788;9.208;2022-09-20T06:00:38;4.93;;;3.13;;
21810;SDS011;11067;48.788;9.208;2022-09-20T06:17:39;4.90;;;2.50;;
21810;SDS011;11067;48.788;9.208;2022-09-20T06:20:09;6.65;;;2.80;;
21810;SDS011;11067;48.788;9.208;2022-09-20T06:22:49;5.97;;;3.17;;
21810;SDS011;11067;48.788;9.208;2022-09-20T06:28:19;9.02;;;3.70;;
21810;SDS011;11067;48.788;9.208;2022-09-20T06:30:46;8.80;;;3.67;;
21810;SDS011;11067;48.788;9.208;2022-09-20T06:33:20;6.55;;;4.70;;
21810;SDS011;11067;48.788;9.208;2022-09-20T06:35:48;6.53;;;3.30;;
21810;SDS011;11067;48.788;9.208;2022-09-20T06:38:23;7.75;;;3.30;;
21810;SDS011;11067;48.788;9.208;2022-09-20T06:41:30;8.25;;;3.28;;
21810;SDS011;11067;48.788;9.208;2022-09-20T06:43:59;6.20;;;3.17;;
21810;SDS011;11067;48.788;9.208;2022-09-20T06:46:29;6.23;;;3.77;;
21810;SDS011;11067;48.788;9.208;2022-09-20T06:48:56;6.53;;;2.85;;
21810;SDS011;11067;48.788;9.208;2022-09-20T06:51:23;8.05;;;3.10;;
21810;SDS011;11067;48.788;9.208;2022-09-20T06:53:50;7.45;;;3.55;;
21810;SDS011;11067;48.788;9.208;2022-09-20T06:56:19;7.78;;;3.15;;
21810;SDS011;11067;48.788;9.208;2022-09-20T06:58:50;8.27;;;2.70;;
21810;SDS011;11067;48.788;9.208;2022-09-20T07:01:17;7.53;;;2.47;;
21810;SDS011;11067;48.788;9.208;2022-09-20T07:03:43;6.27;;;3.30;;
21810;SDS011;11067;48.788;9.208;2022-09-20T07:06:09;7.15;;;2.67;;
21810;SDS011;11067;48.788;9.208;2022-09-20T07:08:35;5.30;;;2.78;;
21810;SDS011;11067;48.788;9.208;2022-09-20T07:11:08;7.40;;;2.83;;
21810;SDS011;11067;48.788;9.208;2022-09-20T07:13:36;7.45;;;2.90;;
21810;SDS011;11067;48.788;9.208;2022-09-20T07:16:02;5.67;;;2.80;;
21810;SDS011;11067;48.788;9.208;2022-09-20T07:18:29;5.63;;;2.67;;
21810;SDS011;11067;48.788;9.208;2022-09-20T07:20:56;8.20;;;3.05;;
21810;SDS011;11067;48.788;9.208;2022-09-20T07:23:22;6.95;;;3.00;;
21810;SDS011;11067;48.788;9.208;2022-09-20T07:25:49;6.13;;;2.92;;
21810;SDS011;11067;48.788;9.208;2022-09-20T07:28:16;7.30;;;3.15;;
21810;SDS011;11067;48.788;9.208;2022-09-20T07:30:45;7.18;;;2.75;;
21810;SDS011;11067;48.788;9.208;2022-09-20T07:33:11;6.68;;;3.25;;
21810;SDS011;11067;48.788;9.208;2022-09-20T07:35:43;5.80;;;3.10;;
21810;SDS011;11067;48.788;9.208;2022-09-20T07:38:10;6.23;;;3.00;;
21810;SDS011;11067;48.788;9.208;2022-09-20T07:40:36;5.15;;;2.97;;
21810;SDS011;11067;48.788;9.208;2022-09-20T07:43:01;6.23;;;2.50;;
21810;SDS011;11067;48.788;9.208;2022-09-20T07:45:27;4.50;;;2.43;;
21810;SDS011;11067;48.788;9.208;2022-09-20T07:47:53;5.27;;;2.63;;
21810;SDS011;11067;48.788;9.208;2022-09-20T07:50:20;5.68;;;2.72;;
21810;SDS011;11067;48.788;9.208;2022-09-20T07:52:46;5.22;;;2.70;;
21810;SDS011;11067;48.788;9.208;2022-09-20T07:55:12;7.03;;;2.67;;
21810;SDS011;11067;48.788;9.208;2022-09-20T07:57:37;7.37;;;3.13;;
21810;SDS011;11067;48.788;9.208;2022-09-20T08:00:04;8.07;;;2.73;;
21810;SDS011;11067;48.788;9.208;2022-09-20T08:02:31;7.57;;;2.60;;
21810;SDS011;11067;48.788;9.208;2022-09-20T08:04:57;5.47;;;2.30;;
21810;SDS011;11067;48.788;9.208;2022-09-20T08:07:23;6.63;;;2.53;;
21810;SDS011;11067;48.788;9.208;2022-09-20T08:09:48;10.37;;;2.30;;
21810;SDS011;11067;48.788;9.208;2022-09-20T08:12:14;6.47;;;2.55;;
21810;SDS011;11067;48.788;9.208;2022-09-20T08:14:41;7.32;;;2.00;;
21810;SDS011;11067;48.788;9.208;2022-09-20T08:17:06;4.53;;;1.75;;
21810;SDS011;11067;48.788;9.208;2022-09-20T08:19:35;5.38;;;2.13;;
21810;SDS011;11067;48.788;9.208;2022-09-20T08:22:03;6.45;;;2.00;;
21810;SDS011;11067;48.788;9.208;2022-09-20T08:24:30;4.97;;;2.10;;
21810;SDS011;11067;48.788;9.208;2022-09-20T08:26:56;5.87;;;2.10;;
21810;SDS011;11067;48.788;9.208;2022-09-20T08:29:22;5.00;;;2.13;;
21810;SDS011;11067;48.788;9.208;2022-09-20T08:31:48;5.65;;;2.47;;
21810;SDS011;11067;48.788;9.208;2022-09-20T08:34:13;7.50;;;2.47;;
21810;SDS011;11067;48.788;9.208;2022-09-20T08:36:41;7.53;;;2.20;;
21810;SDS011;11067;48.788;9.208;2022-09-20T08:39:11;7.00;;;2.03;;
21810;SDS011;11067;48.788;9.208;2022-09-20T08:41:44;7.20;;;2.03;;
21810;SDS011;11067;48.788;9.208;2022-09-20T08:44:15;6.10;;;1.80;;
21810;SDS011;11067;48.788;9.208;2022-09-20T08:46:49;6.63;;;1.97;;
21810;SDS011;11067;48.788;9.208;2022-09-20T08:49:25;5.53;;;2.08;;
21810;SDS011;11067;48.788;9.208;2022-09-20T08:51:52;3.00;;;1.65;;
21810;SDS011;11067;48.788;9.208;2022-09-20T08:54:21;7.72;;;2.03;;
21810;SDS011;11067;48.788;9.208;2022-09-20T08:56:48;6.10;;;1.90;;
21810;SDS011;11067;48.788;9.208;2022-09-20T08:59:15;6.03;;;1.92;;
21810;SDS011;11067;48.788;9.208;2022-09-20T09:01:43;5.35;;;1.48;;
21810;SDS011;11067;48.788;9.208;2022-09-20T09:04:15;3.33;;;1.73;;
21810;SDS011;11067;48.788;9.208;2022-09-20T09:06:43;6.43;;;1.70;;
21810;SDS011;11067;48.788;9.208;2022-09-20T09:09:19;3.57;;;1.60;;
21810;SDS011;11067;48.788;9.208;2022-09-20T09:11:48;2.67;;;1.30;;
21810;SDS011;11067;48.788;9.208;2022-09-20T09:17:13;7.65;;;2.35;;
21810;SDS011;11067;48.788;9.208;2022-09-20T09:19:47;9.33;;;1.90;;
21810;SDS011;11067;48.788;9.208;2022-09-20T09:22:16;4.70;;;1.63;;
21810;SDS011;11067;48.788;9.208;2022-09-20T09:24:43;8.25;;;1.70;;
21810;SDS011;11067;48.788;9.208;2022-09-20T09:27:14;5.57;;;1.70;;
21810;SDS011;11067;48.788;9.208;2022-09-20T09:29:48;3.83;;;1.53;;
21810;SDS011;11067;48.788;9.208;2022-09-20T09:32:20;6.37;;;1.50;;
21810;SDS011;11067;48.788;9.208;2022-09-20T09:34:52;6.75;;;1.65;;
21810;SDS011;11067;48.788;9.208;2022-09-20T09:37:22;4.43;;;1.77;;
21810;SDS011;11067;48.788;9.208;2022-09-20T09:40:04;3.30;;;1.80;;
21810;SDS011;11067;48.788;9.208;2022-09-20T09:42:49;3.57;;;1.53;;
21810;SDS011;11067;48.788;9.208;2022-09-20T09:45:32;6.47;;;1.60;;
21810;SDS011;11067;48.788;9.208;2022-09-20T09:51:14;5.22;;;1.65;;
21810;SDS011;11067;48.788;9.208;2022-09-20T09:53:41;3.22;;;1.30;;
21810;SDS011;11067;48.788;9.208;2022-09-20T10:04:16;6.65;;;1.75;;
21810;SDS011;11067;48.788;9.208;2022-09-20T10:06:58;3.40;;;1.70;;
21810;SDS011;11067;48.788;9.208;2022-09-20T10:14:42;5.07;;;1.60;;
21810;SDS011;11067;48.788;9.208;2022-09-20T10:39:23;5.18;;;1.50;;
21810;SDS011;11067;48.788;9.208;2022-09-20T10:42:07;3.75;;;1.40;;
21810;SDS011;11067;48.788;9.208;2022-09-20T10:50:44;4.47;;;1.45;;
21810;SDS011;11067;48.788;9.208;2022-09-20T10:59:08;3.67;;;1.33;;
21810;SDS011;11067;48.788;9.208;2022-09-20T11:16:08;5.47;;;1.20;;
21810;SDS011;11067;48.788;9.208;2022-09-20T11:18:42;2.65;;;0.98;;
21810;SDS011;11067;48.788;9.208;2022-09-20T11:24:34;5.93;;;1.87;;
21810;SDS011;11067;48.788;9.208;2022-09-20T11:27:04;2.47;;;1.20;;
21810;SDS011;11067;48.788;9.208;2022-09-20T11:34:58;5.82;;;1.60;;
21810;SDS011;11067;48.788;9.208;2022-09-20T11:37:29;3.85;;;1.27;;
21810;SDS011;11067;48.788;9.208;2022-09-20T11:39:59;4.28;;;1.20;;
21810;SDS011;11067;48.788;9.208;2022-09-20T11:42:31;3.33;;;1.20;;
21810;SDS011;11067;48.788;9.208;2022-09-20T11:45:00;3.67;;;1.25;;
21810;SDS011;11067;48.788;9.208;2022-09-20T11:50:36;1.48;;;1.13;;
21810;SDS011;11067;48.788;9.208;2022-09-20T11:58:30;3.30;;;1.20;;
21810;SDS011;11067;48.788;9.208;2022-09-20T12:01:11;2.73;;;1.20;;
21810;SDS011;11067;48.788;9.208;2022-09-20T12:03:38;3.90;;;1.20;;
21810;SDS011;11067;48.788;9.208;2022-09-20T12:06:29;6.07;;;1.35;;
21810;SDS011;11067;48.788;9.208;2022-09-20T12:08:57;4.63;;;1.37;;
21810;SDS011;11067;48.788;9.208;2022-09-20T12:14:01;2.97;;;1.10;;
21810;SDS011;11067;48.788;9.208;2022-09-20T12:16:42;3.37;;;1.30;;
21810;SDS011;11067;48.788;9.208;2022-09-20T12:19:11;2.95;;;1.27;;
21810;SDS011;11067;48.788;9.208;2022-09-20T12:24:25;3.20;;;1.20;;
21810;SDS011;11067;48.788;9.208;2022-09-20T12:26:57;4.15;;;1.38;;
21810;SDS011;11067;48.788;9.208;2022-09-20T12:31:59;1.83;;;0.93;;
21810;SDS011;11067;48.788;9.208;2022-09-20T12:39:26;2.45;;;1.20;;
21810;SDS011;11067;48.788;9.208;2022-09-20T12:42:25;3.42;;;1.45;;
21810;SDS011;11067;48.788;9.208;2022-09-20T12:44:59;4.53;;;1.05;;
21810;SDS011;11067;48.788;9.208;2022-09-20T12:47:29;2.50;;;1.47;;
21810;SDS011;11067;48.788;9.208;2022-09-20T12:49:57;4.68;;;1.30;;
21810;SDS011;11067;48.788;9.208;2022-09-20T13:00:40;3.20;;;1.27;;
21810;SDS011;11067;48.788;9.208;2022-09-20T13:05:46;4.93;;;1.15;;
21810;SDS011;11067;48.788;9.208;2022-09-20T13:08:16;3.80;;;1.30;;
21810;SDS011;11067;48.788;9.208;2022-09-20T13:16:21;5.53;;;1.38;;
21810;SDS011;11067;48.788;9.208;2022-09-20T13:18:55;2.50;;;1.35;;
21810;SDS011;11067;48.788;9.208;2022-09-20T13:21:33;1.98;;;1.15;;
21810;SDS011;11067;48.788;9.208;2022-09-20T13:24:02;2.33;;;1.08;;
21810;SDS011;11067;48.788;9.208;2022-09-20T13:26:39;4.50;;;1.40;;
21810;SDS011;11067;48.788;9.208;2022-09-20T13:29:08;1.95;;;1.20;;
21810;SDS011;11067;48.788;9.208;2022-09-20T13:31:43;4.07;;;1.40;;
21810;SDS011;11067;48.788;9.208;2022-09-20T13:34:12;2.67;;;1.20;;
21810;SDS011;11067;48.788;9.208;2022-09-20T13:36:42;2.28;;;1.30;;
21810;SDS011;11067;48.788;9.208;2022-09-20T13:39:18;3.17;;;0.95;;
21810;SDS011;11067;48.788;9.208;2022-09-20T13:41:51;2.75;;;1.20;;
21810;SDS011;11067;48.788;9.208;2022-09-20T13:44:16;2.22;;;1.40;;
21810;SDS011;11067;48.788;9.208;2022-09-20T13:46:43;3.50;;;1.20;;
21810;SDS011;11067;48.788;9.208;2022-09-20T13:49:16;4.65;;;1.90;;
21810;SDS011;11067;48.788;9.208;2022-09-20T13:51:47;2.47;;;1.20;;
21810;SDS011;11067;48.788;9.208;2022-09-20T13:54:18;3.10;;;1.33;;
21810;SDS011;11067;48.788;9.208;2022-09-20T13:56:44;5.40;;;1.70;;
21810;SDS011;11067;48.788;9.208;2022-09-20T13:59:11;3.05;;;1.40;;
21810;SDS011;11067;48.788;9.208;2022-09-20T14:01:41;3.92;;;1.35;;
21810;SDS011;11067;48.788;9.208;2022-09-20T14:04:22;3.00;;;1.43;;
21810;SDS011;11067;48.788;9.208;2022-09-20T14:06:50;6.72;;;1.67;;
21810;SDS011;11067;48.788;9.208;2022-09-20T14:09:19;2.47;;;1.30;;
21810;SDS011;11067;48.788;9.208;2022-09-20T14:11:56;3.42;;;1.40;;
21810;SDS011;11067;48.788;9.208;2022-09-20T14:14:23;3.53;;;1.50;;
21810;SDS011;11067;48.788;9.208;2022-09-20T14:16:50;5.53;;;1.60;;
21810;SDS011;11067;48.788;9.208;2022-09-20T14:19:19;5.00;;;1.80;;
21810;SDS011;11067;48.788;9.208;2022-09-20T14:21:54;2.85;;;1.40;;
21810;SDS011;11067;48.788;9.208;2022-09-20T14:24:22;2.27;;;1.40;;
21810;SDS011;11067;48.788;9.208;2022-09-20T14:34:43;5.32;;;1.48;;
21810;SDS011;11067;48.788;9.208;2022-09-20T14:37:35;3.60;;;1.50;;
21810;SDS011;11067;48.788;9.208;2022-09-20T14:40:15;3.83;;;1.55;;
21810;SDS011;11067;48.788;9.208;2022-09-20T14:42:48;3.80;;;1.90;;
21810;SDS011;11067;48.788;9.208;2022-09-20T14:47:54;2.93;;;1.40;;
21810;SDS011;11067;48.788;9.208;2022-09-20T14:50:24;4.43;;;1.58;;
21810;SDS011;11067;48.788;9.208;2022-09-20T14:53:02;6.82;;;2.00;;
21810;SDS011;11067;48.788;9.208;2022-09-20T15:01:52;1.90;;;1.45;;
21810;SDS011;11067;48.788;9.208;2022-09-20T15:04:30;4.50;;;1.95;;
21810;SDS011;11067;48.788;9.208;2022-09-20T15:07:00;5.13;;;1.63;;
21810;SDS011;11067;48.788;9.208;2022-09-20T15:09:27;2.70;;;1.70;;
21810;SDS011;11067;48.788;9.208;2022-09-20T15:14:37;3.10;;;1.65;;
21810;SDS011;11067;48.788;9.208;2022-09-20T15:17:05;3.83;;;1.58;;
21810;SDS011;11067;48.788;9.208;2022-09-20T15:19:34;1.58;;;1.23;;
21810;SDS011;11067;48.788;9.208;2022-09-20T15:21:59;3.33;;;1.70;;
21810;SDS011;11067;48.788;9.208;2022-09-20T15:24:25;3.80;;;1.60;;
21810;SDS011;11067;48.788;9.208;2022-09-20T15:26:50;4.50;;;1.40;;
21810;SDS011;11067;48.788;9.208;2022-09-20T15:29:16;8.90;;;1.80;;
21810;SDS011;11067;48.788;9.208;2022-09-20T15:31:43;1.83;;;1.20;;
21810;SDS011;11067;48.788;9.208;2022-09-20T15:34:10;2.88;;;1.10;;
21810;SDS011;11067;48.788;9.208;2022-09-20T15:36:37;3.17;;;1.20;;
21810;SDS011;11067;48.788;9.208;2022-09-20T15:39:03;1.27;;;1.00;;
21810;SDS011;11067;48.788;9.208;2022-09-20T15:41:29;1.88;;;1.10;;
21810;SDS011;11067;48.788;9.208;2022-09-20T15:43:55;1.88;;;1.00;;
21810;SDS011;11067;48.788;9.208;2022-09-20T15:46:22;1.67;;;1.15;;
21810;SDS011;11067;48.788;9.208;2022-09-20T15:48:50;4.57;;;1.37;;
21810;SDS011;11067;48.788;9.208;2022-09-20T15:51:16;1.80;;;1.17;;
21810;SDS011;11067;48.788;9.208;2022-09-20T15:53:45;1.55;;;1.10;;
21810;SDS011;11067;48.788;9.208;2022-09-20T15:56:22;2.20;;;1.20;;
21810;SDS011;11067;48.788;9.208;2022-09-20T15:58:52;2.88;;;1.23;;
21810;SDS011;11067;48.788;9.208;2022-09-20T16:01:26;1.95;;;1.30;;
21810;SDS011;11067;48.788;9.208;2022-09-20T16:03:53;1.40;;;1.10;;
21810;SDS011;11067;48.788;9.208;2022-09-20T16:06:19;2.80;;;1.40;;
21810;SDS011;11067;48.788;9.208;2022-09-20T16:08:45;2.28;;;1.30;;
21810;SDS011;11067;48.788;9.208;2022-09-20T16:11:12;2.83;;;1.40;;
21810;SDS011;11067;48.788;9.208;2022-09-20T16:13:39;4.60;;;1.60;;
21810;SDS011;11067;48.788;9.208;2022-09-20T16:16:05;2.72;;;1.60;;
21810;SDS011;11067;48.788;9.208;2022-09-20T16:18:32;1.20;;;1.10;;
21810;SDS011;11067;48.788;9.208;2022-09-20T16:21:19;2.03;;;1.42;;
21810;SDS011;11067;48.788;9.208;2022-09-20T16:23:45;2.63;;;1.37;;
21810;SDS011;11067;48.788;9.208;2022-09-20T16:26:13;4.07;;;1.48;;
21810;SDS011;11067;48.788;9.208;2022-09-20T16:28:39;2.30;;;1.27;;
21810;SDS011;11067;48.788;9.208;2022-09-20T16:31:05;2.83;;;1.40;;
21810;SDS011;11067;48.788;9.208;2022-09-20T16:33:31;3.80;;;1.60;;
21810;SDS011;11067;48.788;9.208;2022-09-20T16:35:59;2.60;;;1.67;;
21810;SDS011;11067;48.788;9.208;2022-09-20T16:38:25;3.40;;;1.40;;
21810;SDS011;11067;48.788;9.208;2022-09-20T16:40:51;2.90;;;1.20;;
21810;SDS011;11067;48.788;9.208;2022-09-20T16:43:18;3.30;;;1.70;;
21810;SDS011;11067;48.788;9.208;2022-09-20T16:45:56;2.70;;;1.30;;
21810;SDS011;11067;48.788;9.208;2022-09-20T16:48:24;2.67;;;1.58;;
21810;SDS011;11067;48.788;9.208;2022-09-20T16:50:53;3.50;;;1.85;;
21810;SDS011;11067;48.788;9.208;2022-09-20T16:53:19;6.87;;;2.60;;
21810;SDS011;11067;48.788;9.208;2022-09-20T16:55:44;2.60;;;1.92;;
21810;SDS011;11067;48.788;9.208;2022-09-20T16:58:10;6.90;;;2.43;;
21810;SDS011;11067;48.788;9.208;2022-09-20T17:00:35;5.10;;;2.30;;
21810;SDS011;11067;48.788;9.208;2022-09-20T17:03:01;4.28;;;2.33;;
21810;SDS011;11067;48.788;9.208;2022-09-20T17:05:26;2.83;;;1.80;;
21810;SDS011;11067;48.788;9.208;2022-09-20T17:07:53;3.17;;;1.50;;
21810;SDS011;11067;48.788;9.208;2022-09-20T17:10:19;5.00;;;2.13;;
21810;SDS011;11067;48.788;9.208;2022-09-20T17:12:48;3.28;;;2.10;;
21810;SDS011;11067;48.788;9.208;2022-09-20T17:15:16;4.00;;;2.30;;
21810;SDS011;11067;48.788;9.208;2022-09-20T17:17:43;2.88;;;1.88;;
21810;SDS011;11067;48.788;9.208;2022-09-20T17:20:09;3.20;;;2.17;;
21810;SDS011;11067;48.788;9.208;2022-09-20T17:22:34;2.70;;;2.00;;
21810;SDS011;11067;48.788;9.208;2022-09-20T17:25:00;3.27;;;2.10;;
21810;SDS011;11067;48.788;9.208;2022-09-20T17:27:26;3.60;;;2.03;;
21810;SDS011;11067;48.788;9.208;2022-09-20T17:29:52;3.97;;;2.17;;
21810;SDS011;11067;48.788;9.208;2022-09-20T17:32:17;4.75;;;2.40;;
21810;SDS011;11067;48.788;9.208;2022-09-20T17:34:44;5.40;;;2.40;;
21810;SDS011;11067;48.788;9.208;2022-09-20T17:37:10;4.40;;;2.30;;
21810;SDS011;11067;48.788;9.208;2022-09-20T17:39:35;4.13;;;2.20;;
21810;SDS011;11067;48.788;9.208;2022-09-20T17:42:01;4.37;;;2.70;;
21810;SDS011;11067;48.788;9.208;2022-09-20T17:44:26;3.97;;;1.98;;
21810;SDS011;11067;48.788;9.208;2022-09-20T17:46:52;5.30;;;2.30;;
21810;SDS011;11067;48.788;9.208;2022-09-20T17:49:21;2.93;;;2.10;;
21810;SDS011;11067;48.788;9.208;2022-09-20T17:51:48;4.55;;;2.38;;
21810;SDS011;11067;48.788;9.208;2022-09-20T17:54:15;4.80;;;2.20;;
21810;SDS011;11067;48.788;9.208;2022-09-20T17:56:41;4.85;;;2.53;;
21810;SDS011;11067;48.788;9.208;2022-09-20T17:59:08;3.85;;;2.55;;
21810;SDS011;11067;48.788;9.208;2022-09-20T18:01:35;5.75;;;2.40;;
21810;SDS011;11067;48.788;9.208;2022-09-20T18:06:37;8.10;;;2.47;;
21810;SDS011;11067;48.788;9.208;2022-09-20T18:09:08;11.57;;;4.53;;
21810;SDS011;11067;48.788;9.208;2022-09-20T18:11:36;4.78;;;2.88;;
21810;SDS011;11067;48.788;9.208;2022-09-20T18:14:03;6.25;;;2.88;;
21810;SDS011;11067;48.788;9.208;2022-09-20T18:16:30;4.40;;;2.70;;
21810;SDS011;11067;48.788;9.208;2022-09-20T18:18:57;5.73;;;3.10;;
21810;SDS011;11067;48.788;9.208;2022-09-20T18:21:24;6.00;;;2.92;;
21810;SDS011;11067;48.788;9.208;2022-09-20T18:23:51;4.93;;;2.65;;
21810;SDS011;11067;48.788;9.208;2022-09-20T18:26:18;5.82;;;3.15;;
21810;SDS011;11067;48.788;9.208;2022-09-20T18:28:51;3.22;;;2.35;;
21810;SDS011;11067;48.788;9.208;2022-09-20T18:31:18;4.53;;;2.67;;
21810;SDS011;11067;48.788;9.208;2022-09-20T18:33:44;5.23;;;2.50;;
21810;SDS011;11067;48.788;9.208;2022-09-20T18:36:10;5.33;;;2.90;;
21810;SDS011;11067;48.788;9.208;2022-09-20T18:38:35;7.18;;;3.22;;
21810;SDS011;11067;48.788;9.208;2022-09-20T18:41:01;4.55;;;2.90;;
21810;SDS011;11067;48.788;9.208;2022-09-20T18:43:28;8.05;;;2.90;;
21810;SDS011;11067;48.788;9.208;2022-09-20T18:45:55;7.28;;;3.00;;
21810;SDS011;11067;48.788;9.208;2022-09-20T18:48:22;4.57;;;2.80;;
21810;SDS011;11067;48.788;9.208;2022-09-20T18:50:59;5.45;;;2.72;;
21810;SDS011;11067;48.788;9.208;2022-09-20T18:53:30;4.03;;;2.88;;
21810;SDS011;11067;48.788;9.208;2022-09-20T18:58:33;5.00;;;3.20;;
21810;SDS011;11067;48.788;9.208;2022-09-20T19:03:49;5.28;;;3.10;;
21810;SDS011;11067;48.788;9.208;2022-09-20T19:06:23;6.78;;;3.55;;
21810;SDS011;11067;48.788;9.208;2022-09-20T19:08:57;6.35;;;3.35;;
21810;SDS011;11067;48.788;9.208;2022-09-20T19:11:33;5.95;;;3.28;;
21810;SDS011;11067;48.788;9.208;2022-09-20T19:14:05;6.88;;;3.40;;
21810;SDS011;11067;48.788;9.208;2022-09-20T19:16:39;6.78;;;3.78;;
21810;SDS011;11067;48.788;9.208;2022-09-20T19:24:58;6.93;;;4.20;;
21810;SDS011;11067;48.788;9.208;2022-09-20T19:27:32;9.90;;;4.68;;
21810;SDS011;11067;48.788;9.208;2022-09-20T19:29:58;8.73;;;4.85;;
21810;SDS011;11067;48.788;9.208;2022-09-20T19:32:23;8.30;;;4.65;;
21810;SDS011;11067;48.788;9.208;2022-09-20T19:34:52;9.23;;;4.93;;
21810;SDS011;11067;48.788;9.208;2022-09-20T19:45:31;10.38;;;5.45;;
21810;SDS011;11067;48.788;9.208;2022-09-20T19:50:54;7.75;;;4.60;;
21810;SDS011;11067;48.788;9.208;2022-09-20T19:53:22;8.05;;;4.47;;
21810;SDS011;11067;48.788;9.208;2022-09-20T19:55:52;9.93;;;5.77;;
21810;SDS011;11067;48.788;9.208;2022-09-20T19:58:38;9.10;;;5.00;;
21810;SDS011;11067;48.788;9.208;2022-09-20T20:01:07;10.10;;;5.47;;
21810;SDS011;11067;48.788;9.208;2022-09-20T20:03:33;10.63;;;6.20;;
21810;SDS011;11067;48.788;9.208;2022-09-20T20:06:06;10.65;;;5.80;;
21810;SDS011;11067;48.788;9.208;2022-09-20T20:08:47;11.63;;;6.20;;
21810;SDS011;11067;48.788;9.208;2022-09-20T20:11:34;11.13;;;5.43;;
21810;SDS011;11067;48.788;9.208;2022-09-20T20:25:02;9.88;;;4.63;;
21810;SDS011;11067;48.788;9.208;2022-09-20T20:27:28;7.70;;;4.30;;
21810;SDS011;11067;48.788;9.208;2022-09-20T20:29:56;7.03;;;3.88;;
21810;SDS011;11067;48.788;9.208;2022-09-20T20:32:22;8.20;;;4.53;;
21810;SDS011;11067;48.788;9.208;2022-09-20T20:34:48;10.52;;;4.30;;
21810;SDS011;11067;48.788;9.208;2022-09-20T20:37:13;8.00;;;4.18;;
21810;SDS011;11067;48.788;9.208;2022-09-20T20:39:39;8.00;;;4.50;;
21810;SDS011;11067;48.788;9.208;2022-09-20T20:42:05;7.43;;;4.70;;